sensor_id;sensor_type;location;lat;lon;timestamp;P1;durP1;ratioP1;P2;durP2;ratioP2
30543;SDS011;43388;46.308;4.600;2022-12-01T00:01:22;25.10;;;19.95;;
30543;SDS011;43388;46.308;4.600;2022-12-01T00:03:48;26.77;;;21.58;;
30543;SDS011;43388;46.308;4.600;2022-12-01T00:06:16;28.38;;;24.13;;
30543;SDS011;43388;46.308;4.600;2022-12-01T00:08:42;28.70;;;22.65;;
30543;SDS011;43388;46.308;4.600;2022-12-01T00:11:28;25.48;;;19.85;;
30543;SDS011;43388;46.308;4.600;2022-12-01T00:13:54;22.40;;;18.52;;
30543;SDS011;43388;46.308;4.600;2022-12-01T00:16:20;20.33;;;16.92;;
30543;SDS011;43388;46.308;4.600;2022-12-01T00:18:50;20.27;;;17.92;;
30543;SDS011;43388;46.308;4.600;2022-12-01T00:21:17;21.75;;;18.13;;
30543;SDS011;43388;46.308;4.600;2022-12-01T00:23:44;20.70;;;17.65;;
30543;SDS011;43388;46.308;4.600;2022-12-01T00:26:11;22.90;;;18.60;;
30543;SDS011;43388;46.308;4.600;2022-12-01T00:28:37;22.23;;;19.05;;
30543;SDS011;43388;46.308;4.600;2022-12-01T00:31:06;21.92;;;17.80;;
30543;SDS011;43388;46.308;4.600;2022-12-01T00:33:33;22.88;;;17.98;;
30543;SDS011;43388;46.308;4.600;2022-12-01T00:35:59;23.00;;;17.88;;
30543;SDS011;43388;46.308;4.600;2022-12-01T00:38:25;22.95;;;18.88;;
30543;SDS011;43388;46.308;4.600;2022-12-01T00:40:51;24.83;;;19.80;;
30543;SDS011;43388;46.308;4.600;2022-12-01T00:43:17;21.33;;;18.00;;
30543;SDS011;43388;46.308;4.600;2022-12-01T00:45:43;20.85;;;17.65;;
30543;SDS011;43388;46.308;4.600;2022-12-01T00:48:09;20.85;;;18.65;;
30543;SDS011;43388;46.308;4.600;2022-12-01T00:50:35;21.92;;;17.67;;
30543;SDS011;43388;46.308;4.600;2022-12-01T00:53:01;21.40;;;18.40;;
30543;SDS011;43388;46.308;4.600;2022-12-01T00:55:27;22.00;;;18.65;;
30543;SDS011;43388;46.308;4.600;2022-12-01T00:57:53;23.55;;;19.20;;
30543;SDS011;43388;46.308;4.600;2022-12-01T01:00:19;22.67;;;18.83;;
30543;SDS011;43388;46.308;4.600;2022-12-01T01:02:45;23.52;;;18.23;;
30543;SDS011;43388;46.308;4.600;2022-12-01T01:05:11;22.63;;;17.92;;
30543;SDS011;43388;46.308;4.600;2022-12-01T01:07:37;21.73;;;17.67;;
30543;SDS011;43388;46.308;4.600;2022-12-01T01:10:04;22.92;;;18.05;;
30543;SDS011;43388;46.308;4.600;2022-12-01T01:12:30;21.25;;;18.33;;
30543;SDS011;43388;46.308;4.600;2022-12-01T01:14:56;22.33;;;17.63;;
30543;SDS011;43388;46.308;4.600;2022-12-01T01:17:22;21.65;;;18.15;;
30543;SDS011;43388;46.308;4.600;2022-12-01T01:19:48;22.73;;;18.10;;
30543;SDS011;43388;46.308;4.600;2022-12-01T01:22:14;21.77;;;18.08;;
30543;SDS011;43388;46.308;4.600;2022-12-01T01:24:40;22.15;;;17.70;;
30543;SDS011;43388;46.308;4.600;2022-12-01T01:27:06;24.58;;;19.33;;
30543;SDS011;43388;46.308;4.600;2022-12-01T01:29:32;22.33;;;18.55;;
30543;SDS011;43388;46.308;4.600;2022-12-01T01:31:58;20.88;;;18.60;;
30543;SDS011;43388;46.308;4.600;2022-12-01T01:34:24;24.35;;;18.90;;
30543;SDS011;43388;46.308;4.600;2022-12-01T01:36:50;22.83;;;18.05;;
30543;SDS011;43388;46.308;4.600;2022-12-01T01:39:16;22.40;;;17.88;;
30543;SDS011;43388;46.308;4.600;2022-12-01T01:41:42;22.92;;;18.50;;
30543;SDS011;43388;46.308;4.600;2022-12-01T01:46:53;22.38;;;18.05;;
30543;SDS011;43388;46.308;4.600;2022-12-01T01:49:19;21.45;;;18.15;;
30543;SDS011;43388;46.308;4.600;2022-12-01T01:51:49;22.00;;;19.10;;
30543;SDS011;43388;46.308;4.600;2022-12-01T01:54:17;23.55;;;19.05;;
30543;SDS011;43388;46.308;4.600;2022-12-01T01:56:44;21.05;;;18.85;;
30543;SDS011;43388;46.308;4.600;2022-12-01T01:59:11;24.55;;;19.95;;
30543;SDS011;43388;46.308;4.600;2022-12-01T02:01:38;20.88;;;18.55;;
30543;SDS011;43388;46.308;4.600;2022-12-01T02:04:04;21.67;;;18.50;;
30543;SDS011;43388;46.308;4.600;2022-12-01T02:06:30;23.95;;;18.63;;
30543;SDS011;43388;46.308;4.600;2022-12-01T02:08:56;21.45;;;18.35;;
30543;SDS011;43388;46.308;4.600;2022-12-01T02:11:30;20.63;;;18.45;;
30543;SDS011;43388;46.308;4.600;2022-12-01T02:14:04;20.90;;;17.67;;
30543;SDS011;43388;46.308;4.600;2022-12-01T02:27:25;22.38;;;17.60;;
30543;SDS011;43388;46.308;4.600;2022-12-01T02:30:07;18.27;;;16.15;;
30543;SDS011;43388;46.308;4.600;2022-12-01T02:38:03;24.77;;;18.77;;
30543;SDS011;43388;46.308;4.600;2022-12-01T02:40:33;25.67;;;20.60;;
30543;SDS011;43388;46.308;4.600;2022-12-01T02:45:51;50.42;;;33.97;;
30543;SDS011;43388;46.308;4.600;2022-12-01T02:48:28;35.67;;;26.52;;
30543;SDS011;43388;46.308;4.600;2022-12-01T02:50:57;27.67;;;23.17;;
30543;SDS011;43388;46.308;4.600;2022-12-01T02:53:24;25.40;;;21.40;;
30543;SDS011;43388;46.308;4.600;2022-12-01T02:55:51;24.45;;;20.98;;
30543;SDS011;43388;46.308;4.600;2022-12-01T02:58:17;23.88;;;20.27;;
30543;SDS011;43388;46.308;4.600;2022-12-01T03:00:53;23.08;;;18.73;;
30543;SDS011;43388;46.308;4.600;2022-12-01T03:05:57;22.92;;;19.25;;
30543;SDS011;43388;46.308;4.600;2022-12-01T03:08:31;22.73;;;19.17;;
30543;SDS011;43388;46.308;4.600;2022-12-01T03:10:57;24.90;;;20.13;;
30543;SDS011;43388;46.308;4.600;2022-12-01T03:18:47;21.77;;;18.00;;
30543;SDS011;43388;46.308;4.600;2022-12-01T03:23:43;22.15;;;18.35;;
30543;SDS011;43388;46.308;4.600;2022-12-01T03:26:12;22.48;;;18.40;;
30543;SDS011;43388;46.308;4.600;2022-12-01T03:28:41;20.65;;;17.77;;
30543;SDS011;43388;46.308;4.600;2022-12-01T03:31:10;21.88;;;18.88;;
30543;SDS011;43388;46.308;4.600;2022-12-01T03:33:38;22.05;;;18.90;;
30543;SDS011;43388;46.308;4.600;2022-12-01T03:36:07;22.90;;;18.40;;
30543;SDS011;43388;46.308;4.600;2022-12-01T03:38:34;19.45;;;16.77;;
30543;SDS011;43388;46.308;4.600;2022-12-01T03:41:06;20.30;;;17.13;;
30543;SDS011;43388;46.308;4.600;2022-12-01T03:43:35;18.20;;;15.93;;
30543;SDS011;43388;46.308;4.600;2022-12-01T03:49:05;22.00;;;18.02;;
30543;SDS011;43388;46.308;4.600;2022-12-01T03:51:39;19.77;;;17.23;;
30543;SDS011;43388;46.308;4.600;2022-12-01T03:54:15;18.30;;;15.82;;
30543;SDS011;43388;46.308;4.600;2022-12-01T03:56:43;18.75;;;15.98;;
30543;SDS011;43388;46.308;4.600;2022-12-01T03:59:11;18.48;;;16.02;;
30543;SDS011;43388;46.308;4.600;2022-12-01T04:01:38;19.23;;;16.55;;
30543;SDS011;43388;46.308;4.600;2022-12-01T04:04:09;19.65;;;15.90;;
30543;SDS011;43388;46.308;4.600;2022-12-01T04:06:36;18.77;;;16.77;;
30543;SDS011;43388;46.308;4.600;2022-12-01T04:09:02;18.77;;;15.52;;
30543;SDS011;43388;46.308;4.600;2022-12-01T04:11:29;17.83;;;15.90;;
30543;SDS011;43388;46.308;4.600;2022-12-01T04:14:13;18.63;;;16.63;;
30543;SDS011;43388;46.308;4.600;2022-12-01T04:16:39;22.33;;;17.23;;
30543;SDS011;43388;46.308;4.600;2022-12-01T04:19:05;17.15;;;15.18;;
30543;SDS011;43388;46.308;4.600;2022-12-01T04:21:31;17.05;;;15.27;;
30543;SDS011;43388;46.308;4.600;2022-12-01T04:23:57;17.17;;;15.38;;
30543;SDS011;43388;46.308;4.600;2022-12-01T04:26:27;18.50;;;15.98;;
30543;SDS011;43388;46.308;4.600;2022-12-01T04:28:53;17.98;;;16.10;;
30543;SDS011;43388;46.308;4.600;2022-12-01T04:31:19;18.40;;;15.20;;
30543;SDS011;43388;46.308;4.600;2022-12-01T04:33:45;18.10;;;15.73;;
30543;SDS011;43388;46.308;4.600;2022-12-01T04:36:11;18.42;;;16.45;;
30543;SDS011;43388;46.308;4.600;2022-12-01T04:38:37;20.95;;;17.58;;
30543;SDS011;43388;46.308;4.600;2022-12-01T04:41:07;18.08;;;16.10;;
30543;SDS011;43388;46.308;4.600;2022-12-01T04:43:33;21.27;;;16.25;;
30543;SDS011;43388;46.308;4.600;2022-12-01T04:45:59;19.05;;;16.85;;
30543;SDS011;43388;46.308;4.600;2022-12-01T04:48:25;19.42;;;17.13;;
30543;SDS011;43388;46.308;4.600;2022-12-01T04:50:51;23.15;;;17.67;;
30543;SDS011;43388;46.308;4.600;2022-12-01T04:53:17;19.42;;;16.88;;
30543;SDS011;43388;46.308;4.600;2022-12-01T04:55:43;17.15;;;15.25;;
30543;SDS011;43388;46.308;4.600;2022-12-01T04:58:09;17.88;;;15.88;;
30543;SDS011;43388;46.308;4.600;2022-12-01T05:00:35;21.95;;;17.60;;
30543;SDS011;43388;46.308;4.600;2022-12-01T05:03:02;17.30;;;15.38;;
30543;SDS011;43388;46.308;4.600;2022-12-01T05:05:28;18.95;;;16.95;;
30543;SDS011;43388;46.308;4.600;2022-12-01T05:07:55;19.10;;;16.98;;
30543;SDS011;43388;46.308;4.600;2022-12-01T05:10:23;18.83;;;16.48;;
30543;SDS011;43388;46.308;4.600;2022-12-01T05:12:49;19.77;;;17.58;;
30543;SDS011;43388;46.308;4.600;2022-12-01T05:15:15;19.98;;;16.42;;
30543;SDS011;43388;46.308;4.600;2022-12-01T05:17:41;19.90;;;17.58;;
30543;SDS011;43388;46.308;4.600;2022-12-01T05:20:08;17.65;;;15.77;;
30543;SDS011;43388;46.308;4.600;2022-12-01T05:22:57;17.92;;;16.00;;
30543;SDS011;43388;46.308;4.600;2022-12-01T05:25:23;19.33;;;16.75;;
30543;SDS011;43388;46.308;4.600;2022-12-01T05:27:49;20.58;;;16.60;;
30543;SDS011;43388;46.308;4.600;2022-12-01T05:30:15;18.25;;;15.85;;
30543;SDS011;43388;46.308;4.600;2022-12-01T05:32:41;21.83;;;16.52;;
30543;SDS011;43388;46.308;4.600;2022-12-01T05:35:07;19.25;;;16.35;;
30543;SDS011;43388;46.308;4.600;2022-12-01T05:37:33;20.15;;;16.80;;
30543;SDS011;43388;46.308;4.600;2022-12-01T05:39:59;18.33;;;15.82;;
30543;SDS011;43388;46.308;4.600;2022-12-01T05:42:26;18.95;;;16.15;;
30543;SDS011;43388;46.308;4.600;2022-12-01T05:44:52;22.13;;;16.45;;
30543;SDS011;43388;46.308;4.600;2022-12-01T05:47:18;20.67;;;18.05;;
30543;SDS011;43388;46.308;4.600;2022-12-01T05:49:44;21.08;;;17.75;;
30543;SDS011;43388;46.308;4.600;2022-12-01T05:52:10;18.38;;;16.33;;
30543;SDS011;43388;46.308;4.600;2022-12-01T05:54:36;20.63;;;17.73;;
30543;SDS011;43388;46.308;4.600;2022-12-01T05:57:02;19.85;;;16.55;;
30543;SDS011;43388;46.308;4.600;2022-12-01T05:59:28;20.80;;;17.27;;
30543;SDS011;43388;46.308;4.600;2022-12-01T06:01:54;20.33;;;17.65;;
30543;SDS011;43388;46.308;4.600;2022-12-01T06:04:20;21.45;;;16.58;;
30543;SDS011;43388;46.308;4.600;2022-12-01T06:06:46;22.30;;;17.77;;
30543;SDS011;43388;46.308;4.600;2022-12-01T06:09:12;20.98;;;18.50;;
30543;SDS011;43388;46.308;4.600;2022-12-01T06:11:38;25.85;;;19.50;;
30543;SDS011;43388;46.308;4.600;2022-12-01T06:14:04;21.65;;;18.15;;
30543;SDS011;43388;46.308;4.600;2022-12-01T06:16:30;22.05;;;18.35;;
30543;SDS011;43388;46.308;4.600;2022-12-01T06:18:56;21.23;;;18.48;;
30543;SDS011;43388;46.308;4.600;2022-12-01T06:21:22;21.80;;;18.52;;
30543;SDS011;43388;46.308;4.600;2022-12-01T06:23:48;22.65;;;18.35;;
30543;SDS011;43388;46.308;4.600;2022-12-01T06:26:14;21.00;;;18.20;;
30543;SDS011;43388;46.308;4.600;2022-12-01T06:28:40;37.38;;;28.13;;
30543;SDS011;43388;46.308;4.600;2022-12-01T06:31:06;50.50;;;33.22;;
30543;SDS011;43388;46.308;4.600;2022-12-01T06:33:32;68.28;;;40.63;;
30543;SDS011;43388;46.308;4.600;2022-12-01T06:35:58;40.30;;;27.92;;
30543;SDS011;43388;46.308;4.600;2022-12-01T06:38:25;32.70;;;24.30;;
30543;SDS011;43388;46.308;4.600;2022-12-01T06:40:51;31.35;;;19.65;;
30543;SDS011;43388;46.308;4.600;2022-12-01T06:43:17;22.77;;;17.90;;
30543;SDS011;43388;46.308;4.600;2022-12-01T06:45:43;23.67;;;18.25;;
30543;SDS011;43388;46.308;4.600;2022-12-01T06:48:09;23.15;;;19.70;;
30543;SDS011;43388;46.308;4.600;2022-12-01T06:50:36;22.10;;;19.23;;
30543;SDS011;43388;46.308;4.600;2022-12-01T06:53:02;20.38;;;17.55;;
30543;SDS011;43388;46.308;4.600;2022-12-01T06:55:28;22.85;;;19.13;;
30543;SDS011;43388;46.308;4.600;2022-12-01T06:57:54;24.73;;;19.90;;
30543;SDS011;43388;46.308;4.600;2022-12-01T07:00:20;24.17;;;19.75;;
30543;SDS011;43388;46.308;4.600;2022-12-01T07:02:46;24.02;;;19.90;;
30543;SDS011;43388;46.308;4.600;2022-12-01T07:05:12;25.20;;;19.58;;
30543;SDS011;43388;46.308;4.600;2022-12-01T07:07:38;28.00;;;21.15;;
30543;SDS011;43388;46.308;4.600;2022-12-01T07:10:05;23.65;;;20.30;;
30543;SDS011;43388;46.308;4.600;2022-12-01T07:12:31;24.50;;;19.38;;
30543;SDS011;43388;46.308;4.600;2022-12-01T07:14:57;24.38;;;19.15;;
30543;SDS011;43388;46.308;4.600;2022-12-01T07:17:23;23.73;;;19.70;;
30543;SDS011;43388;46.308;4.600;2022-12-01T07:19:49;22.27;;;19.00;;
30543;SDS011;43388;46.308;4.600;2022-12-01T07:22:15;21.83;;;19.60;;
30543;SDS011;43388;46.308;4.600;2022-12-01T07:24:41;20.02;;;17.77;;
30543;SDS011;43388;46.308;4.600;2022-12-01T07:27:07;24.80;;;19.85;;
30543;SDS011;43388;46.308;4.600;2022-12-01T07:29:33;24.25;;;20.35;;
30543;SDS011;43388;46.308;4.600;2022-12-01T07:31:59;24.13;;;20.60;;
30543;SDS011;43388;46.308;4.600;2022-12-01T07:34:25;25.52;;;20.33;;
30543;SDS011;43388;46.308;4.600;2022-12-01T07:36:51;68.07;;;61.25;;
30543;SDS011;43388;46.308;4.600;2022-12-01T07:39:17;28.02;;;24.00;;
30543;SDS011;43388;46.308;4.600;2022-12-01T07:41:43;25.58;;;21.60;;
30543;SDS011;43388;46.308;4.600;2022-12-01T07:44:09;26.23;;;23.45;;
30543;SDS011;43388;46.308;4.600;2022-12-01T07:46:36;26.15;;;23.35;;
30543;SDS011;43388;46.308;4.600;2022-12-01T07:49:03;22.00;;;19.70;;
30543;SDS011;43388;46.308;4.600;2022-12-01T07:51:30;23.05;;;20.55;;
30543;SDS011;43388;46.308;4.600;2022-12-01T07:54:00;31.92;;;24.35;;
30543;SDS011;43388;46.308;4.600;2022-12-01T07:56:26;29.63;;;23.98;;
30543;SDS011;43388;46.308;4.600;2022-12-01T07:58:52;31.45;;;25.08;;
30543;SDS011;43388;46.308;4.600;2022-12-01T08:01:19;35.28;;;29.42;;
30543;SDS011;43388;46.308;4.600;2022-12-01T08:03:46;33.20;;;29.02;;
30543;SDS011;43388;46.308;4.600;2022-12-01T08:06:13;33.65;;;28.63;;
30543;SDS011;43388;46.308;4.600;2022-12-01T08:08:39;29.33;;;24.90;;
30543;SDS011;43388;46.308;4.600;2022-12-01T08:11:09;37.97;;;33.88;;
30543;SDS011;43388;46.308;4.600;2022-12-01T08:13:36;29.25;;;25.90;;
30543;SDS011;43388;46.308;4.600;2022-12-01T08:16:03;29.25;;;25.92;;
30543;SDS011;43388;46.308;4.600;2022-12-01T08:18:29;25.20;;;20.67;;
30543;SDS011;43388;46.308;4.600;2022-12-01T08:20:55;29.73;;;26.52;;
30543;SDS011;43388;46.308;4.600;2022-12-01T08:23:24;28.08;;;25.02;;
30543;SDS011;43388;46.308;4.600;2022-12-01T08:25:50;31.23;;;27.83;;
30543;SDS011;43388;46.308;4.600;2022-12-01T08:28:17;27.50;;;23.65;;
30543;SDS011;43388;46.308;4.600;2022-12-01T08:30:43;56.70;;;46.13;;
30543;SDS011;43388;46.308;4.600;2022-12-01T08:33:09;36.15;;;32.30;;
30543;SDS011;43388;46.308;4.600;2022-12-01T08:35:35;24.95;;;21.33;;
30543;SDS011;43388;46.308;4.600;2022-12-01T08:38:01;25.77;;;21.38;;
30543;SDS011;43388;46.308;4.600;2022-12-01T08:40:28;25.48;;;20.52;;
30543;SDS011;43388;46.308;4.600;2022-12-01T08:42:53;23.48;;;19.98;;
30543;SDS011;43388;46.308;4.600;2022-12-01T08:45:19;22.30;;;19.40;;
30543;SDS011;43388;46.308;4.600;2022-12-01T08:47:47;22.85;;;19.35;;
30543;SDS011;43388;46.308;4.600;2022-12-01T08:50:13;22.45;;;20.02;;
30543;SDS011;43388;46.308;4.600;2022-12-01T08:52:39;22.90;;;19.83;;
30543;SDS011;43388;46.308;4.600;2022-12-01T08:55:05;22.90;;;19.63;;
30543;SDS011;43388;46.308;4.600;2022-12-01T08:57:32;23.33;;;20.38;;
30543;SDS011;43388;46.308;4.600;2022-12-01T08:59:58;23.02;;;20.50;;
30543;SDS011;43388;46.308;4.600;2022-12-01T09:02:24;22.35;;;20.00;;
30543;SDS011;43388;46.308;4.600;2022-12-01T09:04:50;22.17;;;17.80;;
30543;SDS011;43388;46.308;4.600;2022-12-01T09:07:17;32.60;;;29.05;;
30543;SDS011;43388;46.308;4.600;2022-12-01T09:09:43;26.45;;;22.45;;
30543;SDS011;43388;46.308;4.600;2022-12-01T09:12:10;30.65;;;23.88;;
30543;SDS011;43388;46.308;4.600;2022-12-01T09:14:37;24.67;;;20.77;;
30543;SDS011;43388;46.308;4.600;2022-12-01T09:17:03;21.27;;;18.95;;
30543;SDS011;43388;46.308;4.600;2022-12-01T09:19:29;23.25;;;20.85;;
30543;SDS011;43388;46.308;4.600;2022-12-01T09:21:55;31.20;;;24.60;;
30543;SDS011;43388;46.308;4.600;2022-12-01T09:24:21;31.00;;;26.77;;
30543;SDS011;43388;46.308;4.600;2022-12-01T09:26:47;23.52;;;20.77;;
30543;SDS011;43388;46.308;4.600;2022-12-01T09:29:14;22.63;;;20.15;;
30543;SDS011;43388;46.308;4.600;2022-12-01T09:31:41;25.42;;;21.30;;
30543;SDS011;43388;46.308;4.600;2022-12-01T09:34:09;20.45;;;18.38;;
30543;SDS011;43388;46.308;4.600;2022-12-01T09:36:35;19.60;;;16.85;;
30543;SDS011;43388;46.308;4.600;2022-12-01T09:39:02;19.15;;;16.90;;
30543;SDS011;43388;46.308;4.600;2022-12-01T09:41:30;19.58;;;17.17;;
30543;SDS011;43388;46.308;4.600;2022-12-01T09:47:13;18.02;;;16.13;;
30543;SDS011;43388;46.308;4.600;2022-12-01T09:52:15;16.33;;;14.68;;
30543;SDS011;43388;46.308;4.600;2022-12-01T09:54:41;18.13;;;15.75;;
30543;SDS011;43388;46.308;4.600;2022-12-01T09:57:22;15.88;;;14.23;;
30543;SDS011;43388;46.308;4.600;2022-12-01T09:59:49;17.88;;;15.95;;
30543;SDS011;43388;46.308;4.600;2022-12-01T10:02:21;17.05;;;15.25;;
30543;SDS011;43388;46.308;4.600;2022-12-01T10:04:48;15.40;;;13.80;;
30543;SDS011;43388;46.308;4.600;2022-12-01T10:07:35;18.17;;;16.38;;
30543;SDS011;43388;46.308;4.600;2022-12-01T10:10:16;19.17;;;13.77;;
30543;SDS011;43388;46.308;4.600;2022-12-01T10:12:42;15.40;;;13.90;;
30543;SDS011;43388;46.308;4.600;2022-12-01T10:30:21;19.13;;;15.52;;
30543;SDS011;43388;46.308;4.600;2022-12-01T10:32:55;15.73;;;13.95;;
30543;SDS011;43388;46.308;4.600;2022-12-01T10:35:23;17.33;;;15.07;;
30543;SDS011;43388;46.308;4.600;2022-12-01T10:37:52;15.70;;;13.95;;
30543;SDS011;43388;46.308;4.600;2022-12-01T10:40:19;20.23;;;15.23;;
30543;SDS011;43388;46.308;4.600;2022-12-01T10:42:46;17.88;;;15.98;;
30543;SDS011;43388;46.308;4.600;2022-12-01T10:45:14;20.45;;;17.08;;
30543;SDS011;43388;46.308;4.600;2022-12-01T10:50:26;16.33;;;14.63;;
30543;SDS011;43388;46.308;4.600;2022-12-01T10:52:52;15.23;;;13.68;;
30543;SDS011;43388;46.308;4.600;2022-12-01T10:57:47;16.10;;;14.50;;
30543;SDS011;43388;46.308;4.600;2022-12-01T11:00:21;16.17;;;12.88;;
30543;SDS011;43388;46.308;4.600;2022-12-01T11:02:47;14.75;;;13.35;;
30543;SDS011;43388;46.308;4.600;2022-12-01T11:05:21;11.23;;;10.23;;
30543;SDS011;43388;46.308;4.600;2022-12-01T11:10:18;15.23;;;13.73;;
30543;SDS011;43388;46.308;4.600;2022-12-01T11:12:51;14.18;;;12.68;;
30543;SDS011;43388;46.308;4.600;2022-12-01T11:15:19;14.35;;;12.32;;
30543;SDS011;43388;46.308;4.600;2022-12-01T11:17:46;17.20;;;14.40;;
30543;SDS011;43388;46.308;4.600;2022-12-01T11:25:34;13.90;;;12.52;;
30543;SDS011;43388;46.308;4.600;2022-12-01T11:28:01;15.27;;;12.43;;
30543;SDS011;43388;46.308;4.600;2022-12-01T11:30:29;14.23;;;12.82;;
30543;SDS011;43388;46.308;4.600;2022-12-01T11:32:56;13.25;;;11.93;;
30543;SDS011;43388;46.308;4.600;2022-12-01T11:35:23;12.10;;;10.93;;
30543;SDS011;43388;46.308;4.600;2022-12-01T11:37:51;13.00;;;11.73;;
30543;SDS011;43388;46.308;4.600;2022-12-01T11:40:24;11.50;;;9.90;;
30543;SDS011;43388;46.308;4.600;2022-12-01T11:42:52;14.27;;;12.65;;
30543;SDS011;43388;46.308;4.600;2022-12-01T11:50:24;12.23;;;11.02;;
30543;SDS011;43388;46.308;4.600;2022-12-01T11:52:50;13.95;;;12.18;;
30543;SDS011;43388;46.308;4.600;2022-12-01T11:57:42;11.07;;;10.05;;
30543;SDS011;43388;46.308;4.600;2022-12-01T12:00:22;15.23;;;11.35;;
30543;SDS011;43388;46.308;4.600;2022-12-01T12:03:11;11.43;;;10.23;;
30543;SDS011;43388;46.308;4.600;2022-12-01T12:08:19;10.63;;;9.70;;
30543;SDS011;43388;46.308;4.600;2022-12-01T12:10:54;11.43;;;10.20;;
30543;SDS011;43388;46.308;4.600;2022-12-01T12:21:16;12.07;;;10.45;;
30543;SDS011;43388;46.308;4.600;2022-12-01T12:26:27;10.88;;;9.80;;
30543;SDS011;43388;46.308;4.600;2022-12-01T12:28:56;10.15;;;9.25;;
30543;SDS011;43388;46.308;4.600;2022-12-01T12:33:58;9.43;;;8.52;;
30543;SDS011;43388;46.308;4.600;2022-12-01T12:43:58;31.75;;;27.05;;
30543;SDS011;43388;46.308;4.600;2022-12-01T12:52:01;54.70;;;49.33;;
30543;SDS011;43388;46.308;4.600;2022-12-01T12:57:02;11.27;;;10.13;;
30543;SDS011;43388;46.308;4.600;2022-12-01T12:59:32;10.98;;;9.85;;
30543;SDS011;43388;46.308;4.600;2022-12-01T13:02:03;10.63;;;9.45;;
30543;SDS011;43388;46.308;4.600;2022-12-01T13:04:33;10.65;;;9.50;;
30543;SDS011;43388;46.308;4.600;2022-12-01T13:07:04;9.15;;;8.30;;
30543;SDS011;43388;46.308;4.600;2022-12-01T13:09:38;9.55;;;8.55;;
30543;SDS011;43388;46.308;4.600;2022-12-01T13:12:14;9.75;;;8.85;;
30543;SDS011;43388;46.308;4.600;2022-12-01T13:14:42;8.77;;;7.97;;
30543;SDS011;43388;46.308;4.600;2022-12-01T13:19:42;13.13;;;10.55;;
30543;SDS011;43388;46.308;4.600;2022-12-01T13:22:09;9.00;;;8.15;;
30543;SDS011;43388;46.308;4.600;2022-12-01T13:24:36;9.10;;;8.20;;
30543;SDS011;43388;46.308;4.600;2022-12-01T13:27:04;9.20;;;8.18;;
30543;SDS011;43388;46.308;4.600;2022-12-01T13:29:35;8.43;;;7.63;;
30543;SDS011;43388;46.308;4.600;2022-12-01T13:32:02;10.85;;;9.80;;
30543;SDS011;43388;46.308;4.600;2022-12-01T13:34:36;10.73;;;9.63;;
30543;SDS011;43388;46.308;4.600;2022-12-01T13:37:03;11.10;;;10.00;;
30543;SDS011;43388;46.308;4.600;2022-12-01T13:39:29;9.60;;;8.60;;
30543;SDS011;43388;46.308;4.600;2022-12-01T13:42:06;9.73;;;8.75;;
30543;SDS011;43388;46.308;4.600;2022-12-01T13:44:42;9.73;;;8.82;;
30543;SDS011;43388;46.308;4.600;2022-12-01T13:49:39;10.27;;;9.25;;
30543;SDS011;43388;46.308;4.600;2022-12-01T13:57:26;15.73;;;13.70;;
30543;SDS011;43388;46.308;4.600;2022-12-01T14:02:34;11.48;;;9.30;;
30543;SDS011;43388;46.308;4.600;2022-12-01T14:07:55;11.45;;;10.23;;
30543;SDS011;43388;46.308;4.600;2022-12-01T14:10:26;11.00;;;9.85;;
30543;SDS011;43388;46.308;4.600;2022-12-01T14:12:54;9.45;;;8.50;;
30543;SDS011;43388;46.308;4.600;2022-12-01T14:15:23;11.23;;;10.13;;
30543;SDS011;43388;46.308;4.600;2022-12-01T14:17:59;10.82;;;9.82;;
30543;SDS011;43388;46.308;4.600;2022-12-01T14:20:26;11.18;;;9.45;;
30543;SDS011;43388;46.308;4.600;2022-12-01T14:23:03;10.45;;;9.30;;
30543;SDS011;43388;46.308;4.600;2022-12-01T14:25:37;11.30;;;10.10;;
30543;SDS011;43388;46.308;4.600;2022-12-01T14:28:05;11.70;;;10.50;;
30543;SDS011;43388;46.308;4.600;2022-12-01T14:35:50;11.88;;;9.52;;
30543;SDS011;43388;46.308;4.600;2022-12-01T14:38:17;12.55;;;11.25;;
30543;SDS011;43388;46.308;4.600;2022-12-01T14:40:43;11.77;;;10.57;;
30543;SDS011;43388;46.308;4.600;2022-12-01T14:43:09;11.90;;;10.38;;
30543;SDS011;43388;46.308;4.600;2022-12-01T14:46:00;13.60;;;9.57;;
30543;SDS011;43388;46.308;4.600;2022-12-01T14:48:33;11.63;;;8.98;;
30543;SDS011;43388;46.308;4.600;2022-12-01T14:56:22;11.13;;;9.48;;
30543;SDS011;43388;46.308;4.600;2022-12-01T14:58:53;10.02;;;9.02;;
30543;SDS011;43388;46.308;4.600;2022-12-01T15:01:19;9.95;;;8.95;;
30543;SDS011;43388;46.308;4.600;2022-12-01T15:03:51;12.07;;;9.57;;
30543;SDS011;43388;46.308;4.600;2022-12-01T15:06:19;11.20;;;10.05;;
30543;SDS011;43388;46.308;4.600;2022-12-01T15:08:45;13.43;;;11.68;;
30543;SDS011;43388;46.308;4.600;2022-12-01T15:11:18;12.70;;;11.38;;
30543;SDS011;43388;46.308;4.600;2022-12-01T15:13:48;12.07;;;10.77;;
30543;SDS011;43388;46.308;4.600;2022-12-01T15:16:16;11.60;;;10.40;;
30543;SDS011;43388;46.308;4.600;2022-12-01T15:18:43;11.18;;;9.93;;
30543;SDS011;43388;46.308;4.600;2022-12-01T15:21:13;13.88;;;11.48;;
30543;SDS011;43388;46.308;4.600;2022-12-01T15:24:00;17.15;;;15.32;;
30543;SDS011;43388;46.308;4.600;2022-12-01T15:26:31;22.25;;;17.58;;
30543;SDS011;43388;46.308;4.600;2022-12-01T15:31:43;17.90;;;16.15;;
30543;SDS011;43388;46.308;4.600;2022-12-01T15:34:16;20.00;;;18.00;;
30543;SDS011;43388;46.308;4.600;2022-12-01T15:36:44;14.52;;;13.02;;
30543;SDS011;43388;46.308;4.600;2022-12-01T15:39:17;17.40;;;15.05;;
30543;SDS011;43388;46.308;4.600;2022-12-01T15:41:45;15.10;;;13.63;;
30543;SDS011;43388;46.308;4.600;2022-12-01T15:44:27;11.88;;;10.68;;
30543;SDS011;43388;46.308;4.600;2022-12-01T15:46:53;11.73;;;9.88;;
30543;SDS011;43388;46.308;4.600;2022-12-01T15:51:46;9.82;;;8.93;;
30543;SDS011;43388;46.308;4.600;2022-12-01T15:54:21;10.55;;;9.27;;
30543;SDS011;43388;46.308;4.600;2022-12-01T15:56:51;9.77;;;8.77;;
30543;SDS011;43388;46.308;4.600;2022-12-01T15:59:26;11.02;;;9.88;;
30543;SDS011;43388;46.308;4.600;2022-12-01T16:01:53;11.07;;;9.98;;
30543;SDS011;43388;46.308;4.600;2022-12-01T16:04:22;9.85;;;8.95;;
30543;SDS011;43388;46.308;4.600;2022-12-01T16:09:19;9.88;;;8.98;;
30543;SDS011;43388;46.308;4.600;2022-12-01T16:14:30;9.93;;;8.93;;
30543;SDS011;43388;46.308;4.600;2022-12-01T16:16:57;11.55;;;10.35;;
30543;SDS011;43388;46.308;4.600;2022-12-01T16:21:52;16.00;;;14.18;;
30543;SDS011;43388;46.308;4.600;2022-12-01T16:24:25;11.75;;;10.50;;
30543;SDS011;43388;46.308;4.600;2022-12-01T16:26:52;13.90;;;11.30;;
30543;SDS011;43388;46.308;4.600;2022-12-01T16:29:19;10.23;;;9.32;;
30543;SDS011;43388;46.308;4.600;2022-12-01T16:31:46;11.20;;;10.10;;
30543;SDS011;43388;46.308;4.600;2022-12-01T16:34:14;12.43;;;9.90;;
30543;SDS011;43388;46.308;4.600;2022-12-01T16:36:40;11.57;;;10.48;;
30543;SDS011;43388;46.308;4.600;2022-12-01T16:39:06;11.85;;;10.65;;
30543;SDS011;43388;46.308;4.600;2022-12-01T16:41:32;11.82;;;10.63;;
30543;SDS011;43388;46.308;4.600;2022-12-01T16:43:59;12.95;;;11.75;;
30543;SDS011;43388;46.308;4.600;2022-12-01T16:46:25;11.48;;;10.38;;
30543;SDS011;43388;46.308;4.600;2022-12-01T16:48:51;10.95;;;9.85;;
30543;SDS011;43388;46.308;4.600;2022-12-01T16:51:17;11.05;;;9.98;;
30543;SDS011;43388;46.308;4.600;2022-12-01T16:53:44;12.23;;;10.77;;
30543;SDS011;43388;46.308;4.600;2022-12-01T16:56:12;13.80;;;11.65;;